createdAt,value
2017-08-26T00:00:57.127Z,8.90
2017-08-26T00:03:24.695Z,9.43
2017-08-26T00:05:52.231Z,8.87
2017-08-26T00:08:19.799Z,9.43
2017-08-26T00:10:47.335Z,9.20
2017-08-26T00:13:14.917Z,8.97
2017-08-26T00:15:42.446Z,8.87
2017-08-26T00:18:10.023Z,8.30
2017-08-26T00:20:37.559Z,8.27
2017-08-26T00:23:05.092Z,8.50
2017-08-26T00:25:32.699Z,9.10
2017-08-26T00:28:00.258Z,9.70
2017-08-26T00:30:27.789Z,9.03
2017-08-26T00:32:56.107Z,8.67
2017-08-26T00:35:23.658Z,8.60
2017-08-26T00:37:51.191Z,8.40
2017-08-26T00:40:19.506Z,8.07
2017-08-26T00:42:47.060Z,8.60
2017-08-26T00:45:14.618Z,8.87
2017-08-26T00:47:42.182Z,7.80
2017-08-26T00:50:09.738Z,8.30
2017-08-26T00:52:37.262Z,8.53
2017-08-26T00:55:04.858Z,8.03
2017-08-26T00:57:32.430Z,8.33
2017-08-26T00:59:59.959Z,8.27
2017-08-26T01:02:27.488Z,7.90
2017-08-26T01:04:55.112Z,7.10
2017-08-26T01:07:28.251Z,8.00
2017-08-26T01:09:55.787Z,8.10
2017-08-26T01:12:23.342Z,7.63
2017-08-26T01:14:50.870Z,8.37
2017-08-26T01:17:19.203Z,7.40
2017-08-26T01:19:46.748Z,7.63
2017-08-26T01:22:14.303Z,7.73
2017-08-26T01:24:41.879Z,8.20
2017-08-26T01:27:09.410Z,8.17
2017-08-26T01:29:36.993Z,8.30
2017-08-26T01:32:04.561Z,7.87
2017-08-26T01:34:32.214Z,7.47
2017-08-26T01:36:59.783Z,8.53
2017-08-26T01:39:27.335Z,8.00
2017-08-26T01:41:54.865Z,7.93
2017-08-26T01:44:23.184Z,7.27
2017-08-26T01:46:50.714Z,8.20
2017-08-26T01:49:18.267Z,9.13
2017-08-26T01:51:45.797Z,8.43
2017-08-26T01:54:13.357Z,8.90
2017-08-26T01:56:40.892Z,8.60
2017-08-26T01:59:08.429Z,8.70
2017-08-26T02:01:35.962Z,7.80
2017-08-26T02:04:03.486Z,7.80
2017-08-26T02:06:31.034Z,8.90
2017-08-26T02:08:58.564Z,8.00
2017-08-26T02:11:26.110Z,7.90
2017-08-26T02:13:53.632Z,7.70
2017-08-26T02:16:21.183Z,7.80
2017-08-26T02:18:48.711Z,7.33
2017-08-26T02:21:16.263Z,7.70
2017-08-26T02:23:43.794Z,7.70
2017-08-26T02:26:11.347Z,7.83
2017-08-26T02:28:38.958Z,7.60
2017-08-26T02:31:06.522Z,7.70
2017-08-26T02:33:34.051Z,8.03
2017-08-26T02:36:01.583Z,7.50
2017-08-26T02:38:29.440Z,7.90
2017-08-26T02:40:57.084Z,8.13
2017-08-26T02:43:24.743Z,7.87
2017-08-26T02:45:52.270Z,8.13
2017-08-26T02:48:19.826Z,8.70
2017-08-26T02:50:48.118Z,7.63
2017-08-26T02:53:15.700Z,7.40
2017-08-26T02:55:43.223Z,7.03
2017-08-26T02:58:10.818Z,7.17
2017-08-26T03:00:38.382Z,8.07
2017-08-26T03:03:05.910Z,8.40
2017-08-26T03:05:33.439Z,9.77
2017-08-26T03:08:01.740Z,8.27
2017-08-26T03:10:29.268Z,7.63
2017-08-26T03:12:56.793Z,8.43
2017-08-26T03:15:24.331Z,7.80
2017-08-26T03:17:51.858Z,7.73
2017-08-26T03:20:19.411Z,7.50
2017-08-26T03:22:46.940Z,7.73
2017-08-26T03:25:14.474Z,8.60
2017-08-26T03:27:42.003Z,8.23
2017-08-26T03:30:09.527Z,8.20
2017-08-26T03:32:37.054Z,8.27
2017-08-26T03:35:05.347Z,8.00
2017-08-26T03:37:32.872Z,8.63
2017-08-26T03:40:00.407Z,8.03
2017-08-26T03:42:27.937Z,8.70
2017-08-26T03:44:55.472Z,8.17
2017-08-26T03:47:23.767Z,7.73
2017-08-26T03:49:51.291Z,8.30
2017-08-26T03:52:18.824Z,7.80
2017-08-26T03:54:46.356Z,8.10
2017-08-26T03:57:13.909Z,8.40
2017-08-26T03:59:41.441Z,8.13
2017-08-26T04:02:09.006Z,8.40
2017-08-26T04:04:36.542Z,7.73
2017-08-26T04:07:04.080Z,8.07
2017-08-26T04:09:31.618Z,8.63
2017-08-26T04:11:59.154Z,8.90
2017-08-26T04:14:26.695Z,8.53
2017-08-26T04:16:54.227Z,7.43
2017-08-26T04:19:21.760Z,8.17
2017-08-26T04:21:49.292Z,8.40
2017-08-26T04:24:16.839Z,7.87
2017-08-26T04:26:44.375Z,7.50
2017-08-26T04:29:11.911Z,13.00
2017-08-26T04:31:39.453Z,11.47
2017-08-26T04:34:06.983Z,7.97
2017-08-26T04:36:34.519Z,8.73
2017-08-26T04:39:02.079Z,10.23
2017-08-26T04:41:29.666Z,8.97
2017-08-26T04:43:57.226Z,6.80
2017-08-26T04:46:24.758Z,9.27
2017-08-26T04:48:52.287Z,9.10
2017-08-26T04:51:19.819Z,8.90
2017-08-26T04:53:47.346Z,8.00
2017-08-26T04:56:14.881Z,8.03
2017-08-26T04:58:42.411Z,8.00
2017-08-26T05:01:09.963Z,8.30
2017-08-26T05:03:37.489Z,8.93
2017-08-26T05:06:05.043Z,10.00
2017-08-26T05:08:32.576Z,8.40
2017-08-26T05:11:00.143Z,10.60
2017-08-26T05:13:27.668Z,9.00
2017-08-26T05:16:04.886Z,9.47
2017-08-26T05:18:32.410Z,8.40
2017-08-26T05:20:59.939Z,8.40
2017-08-26T05:23:27.466Z,7.70
2017-08-26T05:25:55.108Z,7.90
2017-08-26T05:28:22.647Z,9.37
2017-08-26T05:30:50.208Z,8.37
2017-08-26T05:33:17.762Z,8.70
2017-08-26T05:35:45.294Z,7.77
2017-08-26T05:38:13.610Z,7.70
2017-08-26T05:40:41.138Z,7.50
2017-08-26T05:43:08.723Z,7.80
2017-08-26T05:45:36.254Z,7.90
2017-08-26T05:48:03.790Z,8.57
2017-08-26T05:50:31.322Z,7.93
2017-08-26T05:52:58.852Z,7.60
2017-08-26T05:55:26.462Z,7.47
2017-08-26T05:57:53.999Z,7.63
2017-08-26T06:00:21.535Z,6.97
2017-08-26T06:02:49.072Z,8.10
2017-08-26T06:05:16.611Z,7.93
2017-08-26T06:07:44.142Z,8.03
2017-08-26T06:10:11.700Z,8.37
2017-08-26T06:12:39.243Z,8.23
2017-08-26T06:15:07.588Z,8.30
2017-08-26T06:17:35.126Z,7.43
2017-08-26T06:20:02.673Z,7.77
2017-08-26T06:22:30.206Z,7.13
2017-08-26T06:24:57.738Z,8.03
2017-08-26T06:27:25.274Z,9.00
2017-08-26T06:29:52.810Z,8.10
2017-08-26T06:32:20.347Z,8.43
2017-08-26T06:34:47.882Z,7.60
2017-08-26T06:37:15.407Z,7.83
2017-08-26T06:39:42.938Z,8.27
2017-08-26T06:42:11.259Z,7.43
2017-08-26T06:44:38.791Z,7.20
2017-08-26T06:47:06.342Z,7.53
2017-08-26T06:49:34.642Z,8.03
2017-08-26T06:52:02.199Z,8.03
2017-08-26T06:54:29.820Z,6.70
2017-08-26T06:56:57.515Z,7.67
2017-08-26T06:59:25.067Z,8.30
2017-08-26T07:01:52.631Z,7.10
2017-08-26T07:04:20.158Z,7.20
2017-08-26T07:06:47.695Z,8.03
2017-08-26T07:09:15.228Z,7.17
2017-08-26T07:11:42.754Z,7.97
2017-08-26T07:14:10.301Z,7.43
2017-08-26T07:16:37.830Z,6.77
2017-08-26T07:19:05.359Z,6.83
2017-08-26T07:21:32.904Z,7.30
2017-08-26T07:24:00.467Z,7.43
2017-08-26T07:26:28.763Z,7.80
2017-08-26T07:28:56.343Z,7.20
2017-08-26T07:31:23.875Z,7.80
2017-08-26T07:33:51.439Z,7.40
2017-08-26T07:36:18.979Z,7.20
2017-08-26T07:38:46.532Z,6.40
2017-08-26T07:41:14.122Z,6.93
2017-08-26T07:43:41.695Z,8.47
2017-08-26T07:46:09.233Z,9.37
2017-08-26T07:48:36.773Z,8.00
2017-08-26T07:51:04.315Z,8.43
2017-08-26T07:53:31.852Z,6.97
2017-08-26T07:55:59.383Z,6.80
2017-08-26T07:58:26.918Z,15.00
2017-08-26T08:00:54.464Z,9.60
2017-08-26T08:03:22.004Z,7.57
2017-08-26T08:05:49.568Z,8.43
2017-08-26T08:08:17.116Z,6.13
2017-08-26T08:10:44.691Z,8.20
2017-08-26T08:13:12.219Z,7.90
2017-08-26T08:15:39.754Z,7.87
2017-08-26T08:18:07.296Z,6.23
2017-08-26T08:20:34.835Z,23.20
2017-08-26T08:23:02.399Z,12.00
2017-08-26T08:25:29.951Z,12.10
2017-08-26T08:27:57.519Z,7.40
2017-08-26T08:30:25.060Z,7.90
2017-08-26T08:32:52.586Z,6.33
2017-08-26T08:35:20.127Z,6.00
2017-08-26T08:37:47.671Z,6.13
2017-08-26T08:40:15.206Z,6.00
2017-08-26T08:42:42.739Z,6.43
2017-08-26T08:45:10.295Z,5.90
2017-08-26T08:47:37.822Z,5.63
2017-08-26T08:50:05.438Z,6.10
2017-08-26T08:52:32.967Z,5.10
2017-08-26T08:55:00.522Z,5.93
2017-08-26T08:57:28.055Z,5.57
2017-08-26T08:59:55.591Z,5.60
2017-08-26T09:02:23.121Z,5.77
2017-08-26T09:04:50.647Z,5.50
2017-08-26T09:07:18.211Z,6.37
2017-08-26T09:09:45.744Z,6.80
2017-08-26T09:12:13.299Z,6.20
2017-08-26T09:14:40.834Z,6.33
2017-08-26T09:17:08.366Z,6.73
2017-08-26T09:19:35.906Z,6.50
2017-08-26T09:22:03.439Z,6.53
2017-08-26T09:24:30.973Z,6.67
2017-08-26T09:26:58.502Z,6.57
2017-08-26T09:29:26.030Z,5.63
2017-08-26T09:31:53.563Z,6.70
2017-08-26T09:34:21.086Z,6.00
2017-08-26T09:36:48.611Z,6.23
2017-08-26T09:39:16.150Z,6.10
2017-08-26T09:41:43.675Z,5.93
2017-08-26T09:44:11.206Z,6.27
2017-08-26T09:46:38.775Z,6.17
2017-08-26T09:49:06.316Z,7.43
2017-08-26T09:51:33.850Z,6.30
2017-08-26T09:54:01.374Z,5.83
2017-08-26T09:56:28.915Z,5.67
2017-08-26T09:58:56.455Z,6.37
2017-08-26T10:01:24.087Z,7.10
2017-08-26T10:03:51.619Z,7.00
2017-08-26T10:06:19.152Z,7.20
2017-08-26T10:08:46.683Z,6.90
2017-08-26T10:11:14.209Z,6.73
2017-08-26T10:13:41.763Z,6.70
2017-08-26T10:16:09.296Z,6.83
2017-08-26T10:18:36.864Z,6.20
2017-08-26T10:21:04.395Z,6.37
2017-08-26T10:23:31.918Z,7.20
2017-08-26T10:25:59.442Z,6.63
2017-08-26T10:28:26.984Z,6.00
2017-08-26T10:30:54.515Z,6.20
2017-08-26T10:33:22.055Z,6.87
2017-08-26T10:35:49.593Z,6.70
2017-08-26T10:38:17.118Z,7.00
2017-08-26T10:40:44.652Z,6.60
2017-08-26T10:43:12.181Z,6.37
2017-08-26T10:45:39.751Z,6.80
2017-08-26T10:48:12.386Z,6.30
2017-08-26T10:50:39.958Z,7.23
2017-08-26T10:53:08.254Z,6.63
2017-08-26T10:55:35.784Z,6.10
2017-08-26T10:58:03.314Z,5.80
2017-08-26T11:00:30.843Z,5.70
2017-08-26T11:02:58.427Z,5.90
2017-08-26T11:05:25.959Z,5.53
2017-08-26T11:07:53.486Z,5.60
2017-08-26T11:10:21.012Z,5.60
2017-08-26T11:12:48.544Z,5.33
2017-08-26T11:15:16.080Z,5.97
2017-08-26T11:17:44.394Z,5.50
2017-08-26T11:20:11.923Z,6.03
2017-08-26T11:22:40.247Z,6.23
2017-08-26T11:25:07.780Z,6.13
2017-08-26T11:27:35.329Z,6.90
2017-08-26T11:30:02.850Z,6.03
2017-08-26T11:32:30.403Z,6.63
2017-08-26T11:34:57.930Z,6.43
2017-08-26T11:37:25.500Z,6.70
2017-08-26T11:39:53.033Z,6.10
2017-08-26T11:42:20.558Z,5.60
2017-08-26T11:44:48.087Z,6.43
2017-08-26T11:47:15.613Z,6.50
2017-08-26T11:49:43.906Z,6.53
2017-08-26T11:52:11.464Z,6.57
2017-08-26T11:54:39.010Z,5.93
2017-08-26T11:57:06.538Z,5.70
2017-08-26T11:59:42.207Z,6.07
2017-08-26T12:02:09.819Z,7.30
2017-08-26T12:04:37.387Z,6.80
2017-08-26T12:07:04.924Z,6.40
2017-08-26T12:09:32.503Z,6.20
2017-08-26T12:12:00.063Z,7.63
2017-08-26T12:14:27.591Z,7.37
2017-08-26T12:16:55.124Z,6.53
2017-08-26T12:19:22.650Z,7.00
2017-08-26T12:21:50.196Z,7.30
2017-08-26T12:24:17.731Z,7.30
2017-08-26T12:26:45.300Z,6.47
2017-08-26T12:29:12.836Z,7.37
2017-08-26T12:31:40.399Z,6.70
2017-08-26T12:34:07.942Z,7.27
2017-08-26T12:36:35.579Z,8.50
2017-08-26T12:39:03.115Z,8.00
2017-08-26T12:41:30.647Z,8.50
2017-08-26T12:43:58.254Z,8.30
2017-08-26T12:46:25.795Z,7.97
2017-08-26T12:48:53.376Z,9.47
2017-08-26T12:51:20.914Z,8.07
2017-08-26T12:53:48.479Z,8.63
2017-08-26T12:56:16.019Z,8.30
2017-08-26T12:58:43.576Z,8.00
2017-08-26T13:01:11.121Z,8.67
2017-08-26T13:03:44.661Z,9.40
2017-08-26T13:06:12.264Z,9.80
2017-08-26T13:08:39.919Z,10.07
2017-08-26T13:11:08.214Z,9.63
2017-08-26T13:13:35.737Z,9.73
2017-08-26T13:16:03.266Z,11.63
2017-08-26T13:18:30.794Z,9.20
2017-08-26T13:20:58.350Z,9.90
2017-08-26T13:23:25.902Z,10.97
2017-08-26T13:25:53.459Z,9.60
2017-08-26T13:28:20.987Z,9.53
2017-08-26T13:30:48.535Z,9.80
2017-08-26T13:33:16.066Z,8.87
2017-08-26T13:35:43.618Z,9.00
2017-08-26T13:38:11.152Z,9.00
2017-08-26T13:40:38.725Z,8.90
2017-08-26T13:43:06.258Z,9.20
2017-08-26T13:45:33.788Z,9.83
2017-08-26T13:48:01.323Z,9.70
2017-08-26T13:50:28.847Z,9.50
2017-08-26T13:52:56.397Z,9.13
2017-08-26T13:55:23.927Z,9.97
2017-08-26T13:57:51.485Z,8.10
2017-08-26T14:00:19.022Z,9.73
2017-08-26T14:02:46.577Z,9.80
2017-08-26T14:05:14.888Z,8.07
2017-08-26T14:07:42.551Z,10.57
2017-08-26T14:10:10.110Z,9.10
2017-08-26T14:12:37.681Z,10.10
2017-08-26T14:15:05.219Z,9.43
2017-08-26T14:17:32.802Z,10.17
2017-08-26T14:20:00.340Z,9.90
2017-08-26T14:22:27.879Z,9.87
2017-08-26T14:24:55.555Z,9.30
2017-08-26T14:27:23.095Z,8.97
2017-08-26T14:29:50.707Z,10.67
2017-08-26T14:32:18.255Z,9.67
2017-08-26T14:34:45.817Z,9.67
2017-08-26T14:37:13.358Z,10.40
2017-08-26T14:39:40.917Z,10.90
2017-08-26T14:42:08.451Z,9.60
2017-08-26T14:44:36.018Z,9.70
2017-08-26T14:47:03.563Z,9.93
2017-08-26T14:49:31.167Z,10.70
2017-08-26T14:51:58.737Z,9.50
2017-08-26T14:54:26.303Z,10.20
2017-08-26T14:56:53.860Z,9.10
2017-08-26T14:59:21.392Z,8.70
2017-08-26T15:01:48.957Z,9.57
2017-08-26T15:04:17.271Z,8.60
2017-08-26T15:06:44.803Z,10.60
2017-08-26T15:09:23.039Z,9.50
2017-08-26T15:11:50.574Z,9.73
2017-08-26T15:14:18.103Z,9.63
2017-08-26T15:16:45.719Z,9.47
2017-08-26T15:19:13.286Z,9.37
2017-08-26T15:21:40.862Z,9.40
2017-08-26T15:24:08.395Z,10.47
2017-08-26T15:26:35.997Z,9.50
2017-08-26T15:29:03.523Z,10.57
2017-08-26T15:31:31.124Z,10.17
2017-08-26T15:33:58.694Z,11.10
2017-08-26T15:36:26.223Z,9.40
2017-08-26T15:38:53.786Z,9.80
2017-08-26T15:41:21.323Z,9.27
2017-08-26T15:43:50.626Z,10.43
2017-08-26T15:46:18.222Z,11.23
2017-08-26T15:48:45.824Z,10.83
2017-08-26T15:51:13.384Z,8.90
2017-08-26T15:53:40.931Z,9.17
2017-08-26T15:56:15.119Z,9.83
2017-08-26T15:58:42.757Z,9.63
2017-08-26T16:01:10.648Z,9.80
2017-08-26T16:03:38.183Z,10.17
2017-08-26T16:06:05.773Z,10.00
2017-08-26T16:08:33.302Z,9.47
2017-08-26T16:11:00.833Z,8.93
2017-08-26T16:13:28.482Z,9.03
2017-08-26T16:15:56.128Z,8.87
2017-08-26T16:18:23.676Z,8.87
2017-08-26T16:20:51.219Z,10.27
2017-08-26T16:23:18.799Z,10.00
2017-08-26T16:25:46.332Z,8.70
2017-08-26T16:28:13.866Z,9.07
2017-08-26T16:30:42.166Z,9.67
2017-08-26T16:33:09.859Z,9.90
2017-08-26T16:35:40.339Z,10.90
2017-08-26T16:38:07.956Z,8.80
2017-08-26T16:40:35.500Z,10.33
2017-08-26T16:43:03.085Z,10.60
2017-08-26T16:48:24.879Z,12.60
2017-08-26T16:50:52.428Z,12.77
2017-08-26T16:53:19.960Z,12.73
2017-08-26T16:55:47.554Z,12.73
2017-08-26T16:58:15.090Z,12.57
2017-08-26T17:00:42.647Z,13.50
2017-08-26T17:03:10.188Z,12.70
2017-08-26T17:05:38.642Z,13.20
2017-08-26T17:08:06.179Z,13.10
2017-08-26T17:10:33.731Z,14.97
2017-08-26T17:13:01.283Z,16.20
2017-08-26T17:15:28.846Z,17.00
2017-08-26T17:17:56.386Z,14.70
2017-08-26T17:20:23.931Z,16.10
2017-08-26T17:22:51.464Z,15.73
2017-08-26T17:25:19.010Z,16.47
2017-08-26T17:27:46.573Z,14.83
2017-08-26T17:30:14.111Z,14.40
2017-08-26T17:32:41.667Z,16.03
2017-08-26T17:35:09.200Z,16.37
2017-08-26T17:37:37.526Z,15.20
2017-08-26T17:40:05.068Z,13.57
2017-08-26T17:42:32.623Z,14.90
2017-08-26T17:45:00.208Z,13.97
2017-08-26T17:47:27.766Z,14.30
2017-08-26T17:49:55.293Z,14.60
2017-08-26T17:52:23.631Z,15.43
2017-08-26T17:54:51.162Z,15.17
2017-08-26T17:57:18.726Z,15.50
2017-08-26T17:59:46.268Z,14.40
2017-08-26T18:02:13.847Z,14.10
2017-08-26T18:04:41.402Z,15.20
2017-08-26T18:07:08.934Z,14.70
2017-08-26T18:09:36.488Z,14.63
2017-08-26T18:12:04.018Z,14.67
2017-08-26T18:14:31.574Z,17.10
2017-08-26T18:16:59.112Z,16.37
2017-08-26T18:19:26.666Z,16.57
2017-08-26T18:21:54.198Z,15.30
2017-08-26T18:24:21.737Z,16.90
2017-08-26T18:26:49.298Z,17.03
2017-08-26T18:29:16.829Z,18.83
2017-08-26T18:31:44.451Z,17.47
2017-08-26T18:34:12.010Z,16.83
2017-08-26T18:36:39.584Z,18.27
2017-08-26T18:39:07.127Z,16.83
2017-08-26T18:41:34.719Z,16.60
2017-08-26T18:44:02.255Z,16.20
2017-08-26T18:46:29.839Z,16.43
2017-08-26T18:48:57.406Z,13.10
2017-08-26T18:51:24.964Z,13.93
2017-08-26T18:53:52.523Z,11.93
2017-08-26T18:56:20.055Z,10.97
2017-08-26T18:58:47.670Z,10.27
2017-08-26T19:01:15.207Z,10.63
2017-08-26T19:03:42.766Z,9.97
2017-08-26T19:06:10.331Z,9.60
2017-08-26T19:08:37.900Z,10.17
2017-08-26T19:11:05.442Z,10.63
2017-08-26T19:13:33.054Z,9.07
2017-08-26T19:16:00.611Z,9.73
2017-08-26T19:18:28.279Z,9.40
2017-08-26T19:20:55.835Z,8.27
2017-08-26T19:23:23.388Z,9.60
2017-08-26T19:25:50.928Z,10.10
2017-08-26T19:28:18.455Z,8.80
2017-08-26T19:30:46.087Z,8.40
2017-08-26T19:33:13.621Z,9.60
2017-08-26T19:35:41.209Z,11.10
2017-08-26T19:38:08.759Z,10.30
2017-08-26T19:40:36.347Z,13.20
2017-08-26T19:43:03.882Z,14.30
2017-08-26T19:45:31.416Z,14.30
2017-08-26T19:47:59.018Z,14.87
2017-08-26T19:50:26.562Z,13.03
2017-08-26T19:52:54.099Z,14.10
2017-08-26T19:55:21.638Z,17.00
2017-08-26T19:57:49.175Z,16.23
2017-08-26T20:00:16.738Z,15.90
2017-08-26T20:02:44.287Z,18.33
2017-08-26T20:05:11.827Z,17.53
2017-08-26T20:07:39.359Z,16.03
2017-08-26T20:10:06.926Z,20.00
2017-08-26T20:12:34.460Z,19.97
2017-08-26T20:15:02.066Z,22.03
2017-08-26T20:17:29.670Z,20.90
2017-08-26T20:19:57.304Z,24.13
2017-08-26T20:22:24.843Z,22.67
2017-08-26T20:24:52.378Z,22.60
2017-08-26T20:27:19.912Z,22.80
2017-08-26T20:29:47.453Z,24.37
2017-08-26T20:32:14.997Z,24.30
2017-08-26T20:34:42.540Z,24.70
2017-08-26T20:37:10.070Z,23.40
2017-08-26T20:39:37.601Z,24.73
2017-08-26T20:42:05.159Z,24.80
2017-08-26T20:44:32.695Z,25.90
2017-08-26T20:47:00.235Z,26.87
2017-08-26T20:49:27.818Z,24.93
2017-08-26T20:51:55.362Z,25.23
2017-08-26T20:54:22.895Z,22.20
2017-08-26T20:56:51.195Z,26.17
2017-08-26T20:59:18.726Z,25.97
2017-08-26T21:01:46.262Z,25.20
2017-08-26T21:04:13.794Z,26.03
2017-08-26T21:06:41.327Z,25.30
2017-08-26T21:09:09.637Z,25.10
2017-08-26T21:11:37.171Z,26.07
2017-08-26T21:14:04.735Z,26.60
2017-08-26T21:16:32.291Z,25.43
2017-08-26T21:18:59.847Z,27.20
2017-08-26T21:21:27.415Z,25.70
2017-08-26T21:23:55.086Z,26.07
2017-08-26T21:26:22.622Z,23.57
2017-08-26T21:28:50.163Z,26.20
2017-08-26T21:31:18.462Z,24.80
2017-08-26T21:33:46.043Z,25.40
2017-08-26T21:36:13.603Z,24.73
2017-08-26T21:38:41.163Z,26.20
2017-08-26T21:41:08.718Z,25.10
2017-08-26T21:43:36.256Z,25.90
2017-08-26T21:46:03.842Z,25.60
2017-08-26T21:48:31.382Z,25.57
2017-08-26T21:50:58.943Z,25.27
2017-08-26T21:53:26.474Z,29.83
2017-08-26T21:55:54.030Z,25.60
2017-08-26T21:58:21.567Z,24.93
2017-08-26T22:00:49.142Z,25.00
2017-08-26T22:03:16.676Z,25.90
2017-08-26T22:05:44.216Z,25.40
2017-08-26T22:08:11.747Z,27.50
2017-08-26T22:10:40.041Z,27.40
2017-08-26T22:13:07.579Z,26.50
2017-08-26T22:15:35.120Z,28.90
2017-08-26T22:18:02.650Z,26.97
2017-08-26T22:20:30.207Z,28.70
2017-08-26T22:22:57.738Z,27.80
2017-08-26T22:25:25.274Z,29.07
2017-08-26T22:27:52.815Z,29.20
2017-08-26T22:30:20.358Z,29.50
2017-08-26T22:32:47.992Z,32.10
2017-08-26T22:35:15.529Z,30.07
2017-08-26T22:37:43.066Z,29.27
2017-08-26T22:40:11.370Z,29.33
2017-08-26T22:42:38.946Z,30.00
2017-08-26T22:45:06.475Z,29.73
2017-08-26T22:47:34.014Z,30.10
2017-08-26T22:50:01.551Z,29.00
2017-08-26T22:52:29.081Z,28.23
2017-08-26T22:54:56.622Z,29.00
2017-08-26T22:57:24.154Z,25.50
2017-08-26T22:59:51.692Z,27.40
2017-08-26T23:02:19.227Z,26.37
2017-08-26T23:04:46.758Z,27.47
2017-08-26T23:07:14.291Z,28.50
2017-08-26T23:09:41.822Z,27.97
2017-08-26T23:12:10.183Z,28.00
2017-08-26T23:14:37.742Z,28.40
2017-08-26T23:17:05.275Z,27.20
2017-08-26T23:19:32.849Z,29.07
2017-08-26T23:22:00.395Z,26.93
2017-08-26T23:24:27.963Z,29.23
2017-08-26T23:26:55.494Z,27.97
2017-08-26T23:29:23.022Z,29.30
2017-08-26T23:31:50.551Z,28.10
2017-08-26T23:34:18.083Z,29.50
2017-08-26T23:36:45.704Z,27.77
2017-08-26T23:39:13.235Z,27.50
2017-08-26T23:41:40.772Z,27.97
2017-08-26T23:44:08.303Z,27.10
2017-08-26T23:46:35.858Z,28.43
2017-08-26T23:49:03.399Z,27.17
2017-08-26T23:51:30.963Z,26.83
2017-08-26T23:53:58.490Z,27.30
2017-08-26T23:56:26.083Z,28.63
2017-08-26T23:58:53.627Z,26.47
